sensor_id;sensor_type;location;lat;lon;timestamp;temperature;humidity
14741;DHT22;7462;53.530;9.414;2023-02-28T00:01:25;4.20;99.90
14741;DHT22;7462;53.530;9.414;2023-02-28T00:03:55;4.30;99.90
14741;DHT22;7462;53.530;9.414;2023-02-28T00:06:23;4.70;99.90
14741;DHT22;7462;53.530;9.414;2023-02-28T00:08:52;4.80;99.90
14741;DHT22;7462;53.530;9.414;2023-02-28T00:11:20;4.70;99.90
14741;DHT22;7462;53.530;9.414;2023-02-28T00:13:48;4.70;99.90
14741;DHT22;7462;53.530;9.414;2023-02-28T00:16:18;4.90;99.90
14741;DHT22;7462;53.530;9.414;2023-02-28T00:18:47;5.00;99.90
14741;DHT22;7462;53.530;9.414;2023-02-28T00:21:18;5.10;99.90
14741;DHT22;7462;53.530;9.414;2023-02-28T00:23:46;4.80;99.90
14741;DHT22;7462;53.530;9.414;2023-02-28T00:26:15;4.60;99.90
14741;DHT22;7462;53.530;9.414;2023-02-28T00:28:45;4.40;99.90
14741;DHT22;7462;53.530;9.414;2023-02-28T00:31:13;4.40;99.90
14741;DHT22;7462;53.530;9.414;2023-02-28T00:33:41;4.30;99.90
14741;DHT22;7462;53.530;9.414;2023-02-28T00:36:10;4.40;99.90
14741;DHT22;7462;53.530;9.414;2023-02-28T00:38:40;4.50;99.90
14741;DHT22;7462;53.530;9.414;2023-02-28T00:41:09;4.30;99.90
14741;DHT22;7462;53.530;9.414;2023-02-28T00:43:38;4.30;99.90
14741;DHT22;7462;53.530;9.414;2023-02-28T00:46:07;4.30;99.90
14741;DHT22;7462;53.530;9.414;2023-02-28T00:48:36;4.70;99.90
14741;DHT22;7462;53.530;9.414;2023-02-28T00:51:04;4.80;99.90
14741;DHT22;7462;53.530;9.414;2023-02-28T00:53:32;4.70;99.90
14741;DHT22;7462;53.530;9.414;2023-02-28T00:56:03;4.50;99.90
14741;DHT22;7462;53.530;9.414;2023-02-28T00:58:31;4.40;99.90
14741;DHT22;7462;53.530;9.414;2023-02-28T01:00:59;4.30;99.90
14741;DHT22;7462;53.530;9.414;2023-02-28T01:03:27;4.40;99.90
14741;DHT22;7462;53.530;9.414;2023-02-28T01:05:56;4.60;99.90
14741;DHT22;7462;53.530;9.414;2023-02-28T01:08:24;4.70;99.90
14741;DHT22;7462;53.530;9.414;2023-02-28T01:10:53;4.90;99.90
14741;DHT22;7462;53.530;9.414;2023-02-28T01:13:23;5.10;99.90
14741;DHT22;7462;53.530;9.414;2023-02-28T01:15:54;4.90;99.90
14741;DHT22;7462;53.530;9.414;2023-02-28T01:18:23;4.60;99.90
14741;DHT22;7462;53.530;9.414;2023-02-28T01:20:52;4.90;99.90
14741;DHT22;7462;53.530;9.414;2023-02-28T01:23:20;5.10;99.90
14741;DHT22;7462;53.530;9.414;2023-02-28T01:25:50;5.00;99.90
14741;DHT22;7462;53.530;9.414;2023-02-28T01:28:18;5.10;99.90
14741;DHT22;7462;53.530;9.414;2023-02-28T01:30:51;5.20;99.90
14741;DHT22;7462;53.530;9.414;2023-02-28T01:33:19;5.10;99.90
14741;DHT22;7462;53.530;9.414;2023-02-28T01:35:47;5.30;99.90
14741;DHT22;7462;53.530;9.414;2023-02-28T01:38:16;5.20;99.90
14741;DHT22;7462;53.530;9.414;2023-02-28T01:40:49;5.30;99.90
14741;DHT22;7462;53.530;9.414;2023-02-28T01:43:22;5.30;99.90
14741;DHT22;7462;53.530;9.414;2023-02-28T01:45:53;5.20;99.90
14741;DHT22;7462;53.530;9.414;2023-02-28T01:48:26;5.00;99.90
14741;DHT22;7462;53.530;9.414;2023-02-28T01:50:55;4.90;99.90
14741;DHT22;7462;53.530;9.414;2023-02-28T01:53:31;5.20;99.90
14741;DHT22;7462;53.530;9.414;2023-02-28T01:56:00;5.00;99.90
14741;DHT22;7462;53.530;9.414;2023-02-28T01:58:30;4.70;99.90
14741;DHT22;7462;53.530;9.414;2023-02-28T02:01:00;4.50;99.90
14741;DHT22;7462;53.530;9.414;2023-02-28T02:03:30;4.70;99.90
14741;DHT22;7462;53.530;9.414;2023-02-28T02:05:58;4.70;99.90
14741;DHT22;7462;53.530;9.414;2023-02-28T02:08:29;4.60;99.90
14741;DHT22;7462;53.530;9.414;2023-02-28T02:10:59;4.80;99.90
14741;DHT22;7462;53.530;9.414;2023-02-28T02:13:49;4.70;99.90
14741;DHT22;7462;53.530;9.414;2023-02-28T02:16:36;5.00;99.90
14741;DHT22;7462;53.530;9.414;2023-02-28T02:19:18;4.90;99.90
14741;DHT22;7462;53.530;9.414;2023-02-28T02:22:21;4.90;99.90
14741;DHT22;7462;53.530;9.414;2023-02-28T02:25:11;4.60;99.90
14741;DHT22;7462;53.530;9.414;2023-02-28T02:27:57;4.40;99.90
14741;DHT22;7462;53.530;9.414;2023-02-28T02:30:44;4.80;99.90
14741;DHT22;7462;53.530;9.414;2023-02-28T02:33:35;4.70;99.90
14741;DHT22;7462;53.530;9.414;2023-02-28T02:36:13;4.90;99.90
14741;DHT22;7462;53.530;9.414;2023-02-28T02:38:49;4.90;99.90
14741;DHT22;7462;53.530;9.414;2023-02-28T02:41:23;4.90;99.90
14741;DHT22;7462;53.530;9.414;2023-02-28T02:43:54;4.70;99.90
14741;DHT22;7462;53.530;9.414;2023-02-28T02:46:29;4.90;99.90
14741;DHT22;7462;53.530;9.414;2023-02-28T02:49:00;4.90;99.90
14741;DHT22;7462;53.530;9.414;2023-02-28T02:51:32;4.70;99.90
14741;DHT22;7462;53.530;9.414;2023-02-28T02:54:04;4.40;99.90
14741;DHT22;7462;53.530;9.414;2023-02-28T02:56:36;4.20;99.90
14741;DHT22;7462;53.530;9.414;2023-02-28T02:59:09;4.10;99.90
14741;DHT22;7462;53.530;9.414;2023-02-28T03:01:40;4.20;99.90
14741;DHT22;7462;53.530;9.414;2023-02-28T03:04:11;4.00;99.90
14741;DHT22;7462;53.530;9.414;2023-02-28T03:06:42;3.90;99.90
14741;DHT22;7462;53.530;9.414;2023-02-28T03:09:10;3.80;99.90
14741;DHT22;7462;53.530;9.414;2023-02-28T03:11:39;3.80;99.90
14741;DHT22;7462;53.530;9.414;2023-02-28T03:14:23;3.80;99.90
14741;DHT22;7462;53.530;9.414;2023-02-28T03:17:03;3.70;99.90
14741;DHT22;7462;53.530;9.414;2023-02-28T03:19:47;3.70;99.90
14741;DHT22;7462;53.530;9.414;2023-02-28T03:22:35;3.90;99.90
14741;DHT22;7462;53.530;9.414;2023-02-28T03:25:11;3.80;99.90
14741;DHT22;7462;53.530;9.414;2023-02-28T03:27:47;3.70;99.90
14741;DHT22;7462;53.530;9.414;2023-02-28T03:30:24;3.90;99.90
14741;DHT22;7462;53.530;9.414;2023-02-28T03:32:55;4.20;99.90
14741;DHT22;7462;53.530;9.414;2023-02-28T03:35:27;4.30;99.90
14741;DHT22;7462;53.530;9.414;2023-02-28T03:38:05;4.60;99.90
14741;DHT22;7462;53.530;9.414;2023-02-28T03:40:36;4.40;99.90
14741;DHT22;7462;53.530;9.414;2023-02-28T03:43:09;4.30;99.90
14741;DHT22;7462;53.530;9.414;2023-02-28T03:45:39;4.40;99.90
14741;DHT22;7462;53.530;9.414;2023-02-28T03:48:14;4.30;99.90
14741;DHT22;7462;53.530;9.414;2023-02-28T03:50:45;4.30;99.90
14741;DHT22;7462;53.530;9.414;2023-02-28T03:53:19;4.30;99.90
14741;DHT22;7462;53.530;9.414;2023-02-28T03:55:52;4.30;99.90
14741;DHT22;7462;53.530;9.414;2023-02-28T03:58:28;4.00;99.90
14741;DHT22;7462;53.530;9.414;2023-02-28T04:01:01;4.10;99.90
14741;DHT22;7462;53.530;9.414;2023-02-28T04:03:35;4.20;99.90
14741;DHT22;7462;53.530;9.414;2023-02-28T04:06:04;3.90;99.90
14741;DHT22;7462;53.530;9.414;2023-02-28T04:08:36;3.80;99.90
14741;DHT22;7462;53.530;9.414;2023-02-28T04:11:06;3.70;99.90
14741;DHT22;7462;53.530;9.414;2023-02-28T04:13:36;3.60;99.90
14741;DHT22;7462;53.530;9.414;2023-02-28T04:16:07;3.50;99.90
14741;DHT22;7462;53.530;9.414;2023-02-28T04:18:50;3.50;99.90
14741;DHT22;7462;53.530;9.414;2023-02-28T04:21:18;3.40;99.90
14741;DHT22;7462;53.530;9.414;2023-02-28T04:23:50;3.50;99.90
14741;DHT22;7462;53.530;9.414;2023-02-28T04:26:18;3.70;99.90
14741;DHT22;7462;53.530;9.414;2023-02-28T04:28:46;3.60;99.90
14741;DHT22;7462;53.530;9.414;2023-02-28T04:31:14;3.90;99.90
14741;DHT22;7462;53.530;9.414;2023-02-28T04:33:42;3.90;99.90
14741;DHT22;7462;53.530;9.414;2023-02-28T04:36:10;3.70;99.90
14741;DHT22;7462;53.530;9.414;2023-02-28T04:38:39;3.60;99.90
14741;DHT22;7462;53.530;9.414;2023-02-28T04:41:08;3.40;99.90
14741;DHT22;7462;53.530;9.414;2023-02-28T04:43:36;3.30;99.90
14741;DHT22;7462;53.530;9.414;2023-02-28T04:46:05;3.40;99.90
14741;DHT22;7462;53.530;9.414;2023-02-28T04:48:36;3.40;99.90
14741;DHT22;7462;53.530;9.414;2023-02-28T04:51:06;3.30;99.90
14741;DHT22;7462;53.530;9.414;2023-02-28T04:53:35;3.30;99.90
14741;DHT22;7462;53.530;9.414;2023-02-28T04:56:04;3.20;99.90
14741;DHT22;7462;53.530;9.414;2023-02-28T04:58:34;3.10;99.90
14741;DHT22;7462;53.530;9.414;2023-02-28T05:01:04;3.10;99.90
14741;DHT22;7462;53.530;9.414;2023-02-28T05:03:39;3.10;99.90
14741;DHT22;7462;53.530;9.414;2023-02-28T05:06:08;3.10;99.90
14741;DHT22;7462;53.530;9.414;2023-02-28T05:08:36;3.00;99.90
14741;DHT22;7462;53.530;9.414;2023-02-28T05:11:13;3.00;99.90
14741;DHT22;7462;53.530;9.414;2023-02-28T05:13:43;3.10;99.90
14741;DHT22;7462;53.530;9.414;2023-02-28T05:16:12;3.10;99.90
14741;DHT22;7462;53.530;9.414;2023-02-28T05:18:40;3.30;99.90
14741;DHT22;7462;53.530;9.414;2023-02-28T05:21:25;3.20;99.90
14741;DHT22;7462;53.530;9.414;2023-02-28T05:23:55;3.30;99.90
14741;DHT22;7462;53.530;9.414;2023-02-28T05:26:24;3.20;99.90
14741;DHT22;7462;53.530;9.414;2023-02-28T05:28:54;3.10;99.90
14741;DHT22;7462;53.530;9.414;2023-02-28T05:31:22;3.20;99.90
14741;DHT22;7462;53.530;9.414;2023-02-28T05:33:51;3.40;99.90
14741;DHT22;7462;53.530;9.414;2023-02-28T05:36:19;3.20;99.90
14741;DHT22;7462;53.530;9.414;2023-02-28T05:38:48;3.00;99.90
14741;DHT22;7462;53.530;9.414;2023-02-28T05:41:17;2.90;99.90
14741;DHT22;7462;53.530;9.414;2023-02-28T05:43:46;2.80;99.90
14741;DHT22;7462;53.530;9.414;2023-02-28T05:46:16;2.70;99.90
14741;DHT22;7462;53.530;9.414;2023-02-28T05:48:46;2.70;99.90
14741;DHT22;7462;53.530;9.414;2023-02-28T05:51:16;2.60;99.90
14741;DHT22;7462;53.530;9.414;2023-02-28T05:53:44;2.50;99.90
14741;DHT22;7462;53.530;9.414;2023-02-28T05:56:12;2.50;99.90
14741;DHT22;7462;53.530;9.414;2023-02-28T05:58:40;2.60;99.90
14741;DHT22;7462;53.530;9.414;2023-02-28T06:01:25;2.90;99.90
14741;DHT22;7462;53.530;9.414;2023-02-28T06:03:58;2.60;99.90
14741;DHT22;7462;53.530;9.414;2023-02-28T06:06:28;2.50;99.90
14741;DHT22;7462;53.530;9.414;2023-02-28T06:08:57;2.80;99.90
14741;DHT22;7462;53.530;9.414;2023-02-28T06:11:25;3.20;99.90
14741;DHT22;7462;53.530;9.414;2023-02-28T06:13:55;3.20;99.90
14741;DHT22;7462;53.530;9.414;2023-02-28T06:16:25;3.10;99.90
14741;DHT22;7462;53.530;9.414;2023-02-28T06:18:54;3.30;99.90
14741;DHT22;7462;53.530;9.414;2023-02-28T06:21:23;3.50;99.90
14741;DHT22;7462;53.530;9.414;2023-02-28T06:23:51;3.40;99.90
14741;DHT22;7462;53.530;9.414;2023-02-28T06:26:19;3.40;99.90
14741;DHT22;7462;53.530;9.414;2023-02-28T06:28:48;3.50;99.90
14741;DHT22;7462;53.530;9.414;2023-02-28T06:31:17;3.30;99.90
14741;DHT22;7462;53.530;9.414;2023-02-28T06:33:48;3.00;99.90
14741;DHT22;7462;53.530;9.414;2023-02-28T06:36:17;2.70;99.90
14741;DHT22;7462;53.530;9.414;2023-02-28T06:38:45;2.60;99.90
14741;DHT22;7462;53.530;9.414;2023-02-28T06:41:18;2.60;99.90
14741;DHT22;7462;53.530;9.414;2023-02-28T06:43:46;2.60;99.90
14741;DHT22;7462;53.530;9.414;2023-02-28T06:46:14;2.60;99.90
14741;DHT22;7462;53.530;9.414;2023-02-28T06:48:43;2.50;99.90
14741;DHT22;7462;53.530;9.414;2023-02-28T06:51:14;2.40;99.90
14741;DHT22;7462;53.530;9.414;2023-02-28T06:53:43;2.40;99.90
14741;DHT22;7462;53.530;9.414;2023-02-28T06:56:13;2.40;99.90
14741;DHT22;7462;53.530;9.414;2023-02-28T06:58:41;2.50;99.90
14741;DHT22;7462;53.530;9.414;2023-02-28T07:01:10;2.50;99.90
14741;DHT22;7462;53.530;9.414;2023-02-28T07:03:38;2.60;99.90
14741;DHT22;7462;53.530;9.414;2023-02-28T07:06:07;2.60;99.90
14741;DHT22;7462;53.530;9.414;2023-02-28T07:08:37;2.70;99.90
14741;DHT22;7462;53.530;9.414;2023-02-28T07:11:06;2.70;99.90
14741;DHT22;7462;53.530;9.414;2023-02-28T07:13:35;2.70;99.90
14741;DHT22;7462;53.530;9.414;2023-02-28T07:16:05;2.80;99.90
14741;DHT22;7462;53.530;9.414;2023-02-28T07:18:36;2.80;99.90
14741;DHT22;7462;53.530;9.414;2023-02-28T07:21:06;3.00;99.90
14741;DHT22;7462;53.530;9.414;2023-02-28T07:23:36;3.00;99.90
14741;DHT22;7462;53.530;9.414;2023-02-28T07:26:06;3.20;99.90
14741;DHT22;7462;53.530;9.414;2023-02-28T07:28:34;3.30;99.90
14741;DHT22;7462;53.530;9.414;2023-02-28T07:31:06;3.40;99.90
14741;DHT22;7462;53.530;9.414;2023-02-28T07:33:35;3.50;99.90
14741;DHT22;7462;53.530;9.414;2023-02-28T07:36:05;3.70;99.90
14741;DHT22;7462;53.530;9.414;2023-02-28T07:38:35;3.80;99.90
14741;DHT22;7462;53.530;9.414;2023-02-28T07:41:04;4.00;99.90
14741;DHT22;7462;53.530;9.414;2023-02-28T07:43:32;4.10;99.90
14741;DHT22;7462;53.530;9.414;2023-02-28T07:46:02;4.30;99.90
14741;DHT22;7462;53.530;9.414;2023-02-28T07:48:30;4.40;99.90
14741;DHT22;7462;53.530;9.414;2023-02-28T07:50:59;4.60;99.90
14741;DHT22;7462;53.530;9.414;2023-02-28T07:53:28;4.70;99.90
14741;DHT22;7462;53.530;9.414;2023-02-28T07:55:59;4.90;99.90
14741;DHT22;7462;53.530;9.414;2023-02-28T07:58:28;5.10;99.90
14741;DHT22;7462;53.530;9.414;2023-02-28T08:00:57;5.20;99.90
14741;DHT22;7462;53.530;9.414;2023-02-28T08:03:25;5.40;99.90
14741;DHT22;7462;53.530;9.414;2023-02-28T08:05:53;5.50;99.90
14741;DHT22;7462;53.530;9.414;2023-02-28T08:08:21;5.70;99.90
14741;DHT22;7462;53.530;9.414;2023-02-28T08:10:50;5.80;99.90
14741;DHT22;7462;53.530;9.414;2023-02-28T08:13:19;5.90;99.90
14741;DHT22;7462;53.530;9.414;2023-02-28T08:15:47;6.10;99.90
14741;DHT22;7462;53.530;9.414;2023-02-28T08:18:15;6.30;99.90
14741;DHT22;7462;53.530;9.414;2023-02-28T08:20:43;6.50;99.90
14741;DHT22;7462;53.530;9.414;2023-02-28T08:23:11;6.60;99.90
14741;DHT22;7462;53.530;9.414;2023-02-28T08:25:39;6.80;99.90
14741;DHT22;7462;53.530;9.414;2023-02-28T08:28:08;6.90;99.90
14741;DHT22;7462;53.530;9.414;2023-02-28T08:30:37;7.00;99.90
14741;DHT22;7462;53.530;9.414;2023-02-28T08:33:07;7.10;99.90
14741;DHT22;7462;53.530;9.414;2023-02-28T08:35:36;7.30;99.90
14741;DHT22;7462;53.530;9.414;2023-02-28T08:38:04;7.40;99.90
14741;DHT22;7462;53.530;9.414;2023-02-28T08:40:32;7.40;99.90
14741;DHT22;7462;53.530;9.414;2023-02-28T08:43:00;7.60;99.90
14741;DHT22;7462;53.530;9.414;2023-02-28T08:45:29;7.80;99.90
14741;DHT22;7462;53.530;9.414;2023-02-28T08:47:58;8.00;99.90
14741;DHT22;7462;53.530;9.414;2023-02-28T08:50:26;8.10;99.90
14741;DHT22;7462;53.530;9.414;2023-02-28T08:52:54;8.20;99.90
14741;DHT22;7462;53.530;9.414;2023-02-28T08:55:22;8.30;99.90
14741;DHT22;7462;53.530;9.414;2023-02-28T08:57:50;8.50;99.90
14741;DHT22;7462;53.530;9.414;2023-02-28T09:00:20;8.60;99.90
14741;DHT22;7462;53.530;9.414;2023-02-28T09:02:48;8.60;99.90
14741;DHT22;7462;53.530;9.414;2023-02-28T09:05:17;8.70;99.90
14741;DHT22;7462;53.530;9.414;2023-02-28T09:07:45;8.80;99.90
14741;DHT22;7462;53.530;9.414;2023-02-28T09:10:13;9.00;99.90
14741;DHT22;7462;53.530;9.414;2023-02-28T09:12:42;9.10;99.90
14741;DHT22;7462;53.530;9.414;2023-02-28T09:15:12;9.30;99.90
14741;DHT22;7462;53.530;9.414;2023-02-28T09:17:40;9.50;99.90
14741;DHT22;7462;53.530;9.414;2023-02-28T09:20:12;9.60;99.90
14741;DHT22;7462;53.530;9.414;2023-02-28T09:22:41;9.70;99.90
14741;DHT22;7462;53.530;9.414;2023-02-28T09:25:10;9.80;99.90
14741;DHT22;7462;53.530;9.414;2023-02-28T09:27:38;9.90;99.90
14741;DHT22;7462;53.530;9.414;2023-02-28T09:30:09;10.00;99.90
14741;DHT22;7462;53.530;9.414;2023-02-28T09:32:37;9.90;99.90
14741;DHT22;7462;53.530;9.414;2023-02-28T09:35:06;9.90;99.90
14741;DHT22;7462;53.530;9.414;2023-02-28T09:37:39;10.00;99.90
14741;DHT22;7462;53.530;9.414;2023-02-28T09:40:11;10.00;99.90
14741;DHT22;7462;53.530;9.414;2023-02-28T09:42:39;10.20;99.90
14741;DHT22;7462;53.530;9.414;2023-02-28T09:45:16;10.30;99.90
14741;DHT22;7462;53.530;9.414;2023-02-28T09:47:48;10.30;99.90
14741;DHT22;7462;53.530;9.414;2023-02-28T09:50:28;10.40;99.90
14741;DHT22;7462;53.530;9.414;2023-02-28T09:52:57;10.30;99.90
14741;DHT22;7462;53.530;9.414;2023-02-28T09:55:29;10.50;99.90
14741;DHT22;7462;53.530;9.414;2023-02-28T09:58:11;10.70;99.90
14741;DHT22;7462;53.530;9.414;2023-02-28T10:00:44;11.00;99.90
14741;DHT22;7462;53.530;9.414;2023-02-28T10:03:27;11.20;99.90
14741;DHT22;7462;53.530;9.414;2023-02-28T10:06:00;11.30;99.90
14741;DHT22;7462;53.530;9.414;2023-02-28T10:08:36;11.50;99.90
14741;DHT22;7462;53.530;9.414;2023-02-28T10:11:12;11.60;99.90
14741;DHT22;7462;53.530;9.414;2023-02-28T10:13:51;11.70;99.90
14741;DHT22;7462;53.530;9.414;2023-02-28T10:16:25;11.80;99.90
14741;DHT22;7462;53.530;9.414;2023-02-28T10:18:59;11.90;99.90
14741;DHT22;7462;53.530;9.414;2023-02-28T10:21:34;12.00;99.90
14741;DHT22;7462;53.530;9.414;2023-02-28T10:24:09;11.90;99.90
14741;DHT22;7462;53.530;9.414;2023-02-28T10:26:43;11.70;99.90
14741;DHT22;7462;53.530;9.414;2023-02-28T10:29:12;12.00;99.90
14741;DHT22;7462;53.530;9.414;2023-02-28T10:31:41;12.30;99.90
14741;DHT22;7462;53.530;9.414;2023-02-28T10:34:12;12.50;99.90
14741;DHT22;7462;53.530;9.414;2023-02-28T10:36:41;12.50;99.90
14741;DHT22;7462;53.530;9.414;2023-02-28T10:39:36;12.50;99.90
14741;DHT22;7462;53.530;9.414;2023-02-28T10:42:20;12.50;99.90
14741;DHT22;7462;53.530;9.414;2023-02-28T10:44:48;12.20;99.90
14741;DHT22;7462;53.530;9.414;2023-02-28T10:47:17;12.40;99.90
14741;DHT22;7462;53.530;9.414;2023-02-28T10:49:48;12.70;99.90
14741;DHT22;7462;53.530;9.414;2023-02-28T10:52:33;12.70;99.90
14741;DHT22;7462;53.530;9.414;2023-02-28T10:55:20;12.80;99.90
14741;DHT22;7462;53.530;9.414;2023-02-28T10:57:51;13.00;99.90
14741;DHT22;7462;53.530;9.414;2023-02-28T11:00:21;13.20;99.90
14741;DHT22;7462;53.530;9.414;2023-02-28T11:02:52;13.20;99.90
14741;DHT22;7462;53.530;9.414;2023-02-28T11:05:28;13.30;99.90
14741;DHT22;7462;53.530;9.414;2023-02-28T11:08:04;13.30;99.90
14741;DHT22;7462;53.530;9.414;2023-02-28T11:10:33;13.20;99.90
14741;DHT22;7462;53.530;9.414;2023-02-28T11:13:03;13.00;99.90
14741;DHT22;7462;53.530;9.414;2023-02-28T11:15:33;13.10;99.90
14741;DHT22;7462;53.530;9.414;2023-02-28T11:18:06;13.30;99.90
14741;DHT22;7462;53.530;9.414;2023-02-28T11:20:48;13.50;99.90
14741;DHT22;7462;53.530;9.414;2023-02-28T11:23:17;13.50;99.90
14741;DHT22;7462;53.530;9.414;2023-02-28T11:25:49;13.60;99.90
14741;DHT22;7462;53.530;9.414;2023-02-28T11:28:27;13.70;99.90
14741;DHT22;7462;53.530;9.414;2023-02-28T11:31:01;13.70;99.90
14741;DHT22;7462;53.530;9.414;2023-02-28T11:33:30;13.60;99.90
14741;DHT22;7462;53.530;9.414;2023-02-28T11:36:02;13.80;99.90
14741;DHT22;7462;53.530;9.414;2023-02-28T11:38:34;13.70;99.90
14741;DHT22;7462;53.530;9.414;2023-02-28T11:44:10;13.70;99.90
14741;DHT22;7462;53.530;9.414;2023-02-28T11:46:47;13.70;99.90
14741;DHT22;7462;53.530;9.414;2023-02-28T11:49:35;13.70;99.90
14741;DHT22;7462;53.530;9.414;2023-02-28T11:52:14;13.90;99.90
14741;DHT22;7462;53.530;9.414;2023-02-28T11:54:58;14.00;99.90
14741;DHT22;7462;53.530;9.414;2023-02-28T11:57:42;13.90;99.90
14741;DHT22;7462;53.530;9.414;2023-02-28T12:00:32;13.60;99.90
14741;DHT22;7462;53.530;9.414;2023-02-28T12:03:16;13.20;99.90
14741;DHT22;7462;53.530;9.414;2023-02-28T12:05:46;12.80;99.90
14741;DHT22;7462;53.530;9.414;2023-02-28T12:08:28;12.10;99.90
14741;DHT22;7462;53.530;9.414;2023-02-28T12:11:07;12.20;99.90
14741;DHT22;7462;53.530;9.414;2023-02-28T12:13:46;12.30;99.90
14741;DHT22;7462;53.530;9.414;2023-02-28T12:16:47;12.30;99.90
14741;DHT22;7462;53.530;9.414;2023-02-28T12:19:20;12.40;99.90
14741;DHT22;7462;53.530;9.414;2023-02-28T12:22:12;12.20;99.90
14741;DHT22;7462;53.530;9.414;2023-02-28T12:25:13;12.20;99.90
14741;DHT22;7462;53.530;9.414;2023-02-28T12:27:48;12.20;99.90
14741;DHT22;7462;53.530;9.414;2023-02-28T12:30:21;12.20;99.90
14741;DHT22;7462;53.530;9.414;2023-02-28T12:32:55;12.10;99.90
14741;DHT22;7462;53.530;9.414;2023-02-28T12:35:28;12.00;99.90
14741;DHT22;7462;53.530;9.414;2023-02-28T12:38:04;12.00;99.90
14741;DHT22;7462;53.530;9.414;2023-02-28T12:40:42;12.00;99.90
14741;DHT22;7462;53.530;9.414;2023-02-28T12:43:13;12.00;99.90
14741;DHT22;7462;53.530;9.414;2023-02-28T12:45:45;11.70;99.90
14741;DHT22;7462;53.530;9.414;2023-02-28T12:48:22;11.70;99.90
14741;DHT22;7462;53.530;9.414;2023-02-28T12:50:52;11.80;99.90
14741;DHT22;7462;53.530;9.414;2023-02-28T12:53:24;11.80;99.90
14741;DHT22;7462;53.530;9.414;2023-02-28T12:56:02;11.80;99.90
14741;DHT22;7462;53.530;9.414;2023-02-28T12:58:39;12.20;99.90
14741;DHT22;7462;53.530;9.414;2023-02-28T13:01:39;12.40;99.90
14741;DHT22;7462;53.530;9.414;2023-02-28T13:04:36;11.70;99.90
14741;DHT22;7462;53.530;9.414;2023-02-28T13:07:35;11.50;99.90
14741;DHT22;7462;53.530;9.414;2023-02-28T13:10:09;11.20;99.90
14741;DHT22;7462;53.530;9.414;2023-02-28T13:12:47;11.20;99.90
14741;DHT22;7462;53.530;9.414;2023-02-28T13:15:19;11.40;99.90
14741;DHT22;7462;53.530;9.414;2023-02-28T13:17:52;11.30;99.90
14741;DHT22;7462;53.530;9.414;2023-02-28T13:20:24;11.40;99.90
14741;DHT22;7462;53.530;9.414;2023-02-28T13:22:56;11.40;99.90
14741;DHT22;7462;53.530;9.414;2023-02-28T13:35:12;11.60;99.90
14741;DHT22;7462;53.530;9.414;2023-02-28T13:37:43;11.20;99.90
14741;DHT22;7462;53.530;9.414;2023-02-28T13:40:29;11.00;99.90
14741;DHT22;7462;53.530;9.414;2023-02-28T13:43:06;11.00;99.90
14741;DHT22;7462;53.530;9.414;2023-02-28T13:45:35;10.90;99.90
14741;DHT22;7462;53.530;9.414;2023-02-28T13:48:16;10.80;99.90
14741;DHT22;7462;53.530;9.414;2023-02-28T13:50:46;10.40;99.90
14741;DHT22;7462;53.530;9.414;2023-02-28T13:53:47;10.50;99.90
14741;DHT22;7462;53.530;9.414;2023-02-28T13:56:28;10.30;99.90
14741;DHT22;7462;53.530;9.414;2023-02-28T13:59:06;10.20;99.90
14741;DHT22;7462;53.530;9.414;2023-02-28T14:01:52;9.90;99.90
14741;DHT22;7462;53.530;9.414;2023-02-28T14:04:58;9.80;99.90
14741;DHT22;7462;53.530;9.414;2023-02-28T14:07:32;9.70;99.90
14741;DHT22;7462;53.530;9.414;2023-02-28T14:10:05;9.50;99.90
14741;DHT22;7462;53.530;9.414;2023-02-28T14:12:55;9.60;99.90
14741;DHT22;7462;53.530;9.414;2023-02-28T14:15:49;9.50;99.90
14741;DHT22;7462;53.530;9.414;2023-02-28T14:18:28;9.40;99.90
14741;DHT22;7462;53.530;9.414;2023-02-28T14:21:20;9.30;99.90
14741;DHT22;7462;53.530;9.414;2023-02-28T14:24:20;8.90;99.90
14741;DHT22;7462;53.530;9.414;2023-02-28T14:27:17;9.00;99.90
14741;DHT22;7462;53.530;9.414;2023-02-28T14:30:29;8.80;99.90
14741;DHT22;7462;53.530;9.414;2023-02-28T14:33:14;8.70;99.90
14741;DHT22;7462;53.530;9.414;2023-02-28T14:36:03;8.50;99.90
14741;DHT22;7462;53.530;9.414;2023-02-28T14:38:35;8.40;99.90
14741;DHT22;7462;53.530;9.414;2023-02-28T14:41:14;8.60;99.90
14741;DHT22;7462;53.530;9.414;2023-02-28T14:43:55;8.70;99.90
14741;DHT22;7462;53.530;9.414;2023-02-28T14:46:26;8.60;99.90
14741;DHT22;7462;53.530;9.414;2023-02-28T14:48:56;8.40;99.90
14741;DHT22;7462;53.530;9.414;2023-02-28T14:51:24;8.40;99.90
14741;DHT22;7462;53.530;9.414;2023-02-28T14:54:01;8.40;99.90
14741;DHT22;7462;53.530;9.414;2023-02-28T14:56:34;8.40;99.90
14741;DHT22;7462;53.530;9.414;2023-02-28T14:59:03;8.20;99.90
14741;DHT22;7462;53.530;9.414;2023-02-28T15:01:32;8.20;99.90
14741;DHT22;7462;53.530;9.414;2023-02-28T15:04:03;8.10;99.90
14741;DHT22;7462;53.530;9.414;2023-02-28T15:06:32;8.00;99.90
14741;DHT22;7462;53.530;9.414;2023-02-28T15:09:08;7.90;99.90
14741;DHT22;7462;53.530;9.414;2023-02-28T15:11:39;8.00;99.90
14741;DHT22;7462;53.530;9.414;2023-02-28T15:14:15;8.10;99.90
14741;DHT22;7462;53.530;9.414;2023-02-28T15:16:46;8.00;99.90
14741;DHT22;7462;53.530;9.414;2023-02-28T15:19:20;7.80;99.90
14741;DHT22;7462;53.530;9.414;2023-02-28T15:21:52;7.80;99.90
14741;DHT22;7462;53.530;9.414;2023-02-28T15:24:25;7.80;99.90
14741;DHT22;7462;53.530;9.414;2023-02-28T15:27:02;7.80;99.90
14741;DHT22;7462;53.530;9.414;2023-02-28T15:29:37;7.60;99.90
14741;DHT22;7462;53.530;9.414;2023-02-28T15:32:23;7.60;99.90
14741;DHT22;7462;53.530;9.414;2023-02-28T15:34:52;7.60;99.90
14741;DHT22;7462;53.530;9.414;2023-02-28T15:37:29;7.50;99.90
14741;DHT22;7462;53.530;9.414;2023-02-28T15:40:07;7.50;99.90
14741;DHT22;7462;53.530;9.414;2023-02-28T15:42:37;7.50;99.90
14741;DHT22;7462;53.530;9.414;2023-02-28T15:45:27;7.60;99.90
14741;DHT22;7462;53.530;9.414;2023-02-28T15:47:58;7.50;99.90
14741;DHT22;7462;53.530;9.414;2023-02-28T15:50:40;7.60;99.90
14741;DHT22;7462;53.530;9.414;2023-02-28T15:53:14;7.50;99.90
14741;DHT22;7462;53.530;9.414;2023-02-28T15:55:43;7.40;99.90
14741;DHT22;7462;53.530;9.414;2023-02-28T15:58:13;7.40;99.90
14741;DHT22;7462;53.530;9.414;2023-02-28T16:00:43;7.40;99.90
14741;DHT22;7462;53.530;9.414;2023-02-28T16:03:26;7.50;99.90
14741;DHT22;7462;53.530;9.414;2023-02-28T16:09:06;7.40;99.90
14741;DHT22;7462;53.530;9.414;2023-02-28T16:11:38;7.30;99.90
14741;DHT22;7462;53.530;9.414;2023-02-28T16:14:15;7.50;99.90
14741;DHT22;7462;53.530;9.414;2023-02-28T16:16:45;7.80;99.90
14741;DHT22;7462;53.530;9.414;2023-02-28T16:19:13;7.70;99.90
14741;DHT22;7462;53.530;9.414;2023-02-28T16:21:41;7.50;99.90
14741;DHT22;7462;53.530;9.414;2023-02-28T16:24:09;7.30;99.90
14741;DHT22;7462;53.530;9.414;2023-02-28T16:26:40;7.10;99.90
14741;DHT22;7462;53.530;9.414;2023-02-28T16:29:09;7.00;99.90
14741;DHT22;7462;53.530;9.414;2023-02-28T16:31:42;6.90;99.90
14741;DHT22;7462;53.530;9.414;2023-02-28T16:34:10;6.80;99.90
14741;DHT22;7462;53.530;9.414;2023-02-28T16:36:39;6.70;99.90
14741;DHT22;7462;53.530;9.414;2023-02-28T16:39:07;6.80;99.90
14741;DHT22;7462;53.530;9.414;2023-02-28T16:41:36;6.70;99.90
14741;DHT22;7462;53.530;9.414;2023-02-28T16:44:10;6.70;99.90
14741;DHT22;7462;53.530;9.414;2023-02-28T16:46:40;6.70;99.90
14741;DHT22;7462;53.530;9.414;2023-02-28T16:49:12;6.70;99.90
14741;DHT22;7462;53.530;9.414;2023-02-28T16:51:40;6.70;99.90